Terminal Aerodrome Forecast
Issued by NWS Jackson, MS

Home | Current Version | Previous Version | Text Only | Print | Product List | Glossary On
Versions: 1 2 3 4 5 6 7 8 9 10 11 12 13 14 15 16
000
FTUS44 KJAN 311726
TAFJAN
TAF
KJAN 311726Z 3118/0118 18006KT P6SM VCTS SCT050CB BKN250
     FM010200 17003KT P6SM VCSH FEW030 SCT050 BKN150
     FM011000 00000KT 5SM BR FEW030 SCT050 BKN150
     FM011300 00000KT P6SM BKN250=

USA.gov is the U.S. government's official web portal to all federal, state and local government web resources and services.